createdAt,value
2018-08-30T00:01:12.594Z,18.19
2018-08-30T00:03:40.994Z,18.22
2018-08-30T00:06:09.475Z,18.23
2018-08-30T00:08:37.827Z,18.24
2018-08-30T00:11:06.176Z,18.28
2018-08-30T00:13:34.502Z,18.42
2018-08-30T00:16:02.824Z,18.27
2018-08-30T00:18:31.322Z,18.37
2018-08-30T00:20:59.631Z,18.27
2018-08-30T00:23:28.007Z,18.33
2018-08-30T00:25:56.372Z,18.36
2018-08-30T00:28:24.744Z,18.23
2018-08-30T00:30:53.093Z,18.24
2018-08-30T00:33:21.476Z,18.20
2018-08-30T00:35:49.785Z,18.29
2018-08-30T00:38:18.165Z,18.26
2018-08-30T00:40:46.467Z,18.24
2018-08-30T00:43:14.876Z,18.21
2018-08-30T00:45:43.190Z,18.27
2018-08-30T00:48:11.618Z,18.10
2018-08-30T00:50:40.054Z,18.16
2018-08-30T00:53:08.438Z,18.22
2018-08-30T00:55:36.831Z,18.25
2018-08-30T00:58:05.289Z,18.14
2018-08-30T01:00:33.631Z,18.09
2018-08-30T01:03:01.985Z,18.13
2018-08-30T01:05:30.319Z,18.18
2018-08-30T01:07:58.720Z,18.16
2018-08-30T01:10:27.100Z,18.07
2018-08-30T01:12:56.488Z,18.11
2018-08-30T01:15:26.938Z,18.09
2018-08-30T01:17:55.874Z,18.03
2018-08-30T01:20:24.304Z,18.04
2018-08-30T01:22:52.718Z,17.97
2018-08-30T01:25:21.286Z,17.83
2018-08-30T01:27:49.684Z,17.88
2018-08-30T01:30:18.506Z,17.88
2018-08-30T01:32:46.929Z,17.75
2018-08-30T01:35:15.244Z,17.69
2018-08-30T01:37:43.591Z,17.64
2018-08-30T01:40:11.996Z,17.68
2018-08-30T01:42:40.361Z,17.65
2018-08-30T01:45:08.815Z,17.56
2018-08-30T01:47:37.192Z,17.57
2018-08-30T01:50:05.596Z,17.50
2018-08-30T01:52:33.928Z,17.39
2018-08-30T01:55:02.257Z,17.30
2018-08-30T01:57:30.680Z,17.33
2018-08-30T01:59:58.992Z,17.25
2018-08-30T02:02:27.368Z,17.35
2018-08-30T02:04:55.710Z,17.31
2018-08-30T02:07:24.055Z,17.21
2018-08-30T02:09:52.414Z,17.26
2018-08-30T02:12:20.726Z,17.22
2018-08-30T02:14:50.041Z,17.29
2018-08-30T02:17:18.343Z,17.30
2018-08-30T02:19:46.711Z,17.30
2018-08-30T02:22:15.056Z,17.30
2018-08-30T02:24:43.559Z,17.31
2018-08-30T02:27:12.013Z,17.35
2018-08-30T02:29:40.344Z,17.53
2018-08-30T02:32:08.642Z,17.42
2018-08-30T02:34:36.967Z,17.41
2018-08-30T02:37:05.371Z,17.47
2018-08-30T02:39:33.767Z,17.45
2018-08-30T02:42:02.123Z,17.42
2018-08-30T02:44:30.505Z,17.49
2018-08-30T02:46:58.910Z,17.54
2018-08-30T02:49:27.279Z,17.55
2018-08-30T02:51:55.615Z,17.52
2018-08-30T02:54:23.988Z,17.56
2018-08-30T02:56:52.327Z,17.68
2018-08-30T02:59:20.693Z,17.61
2018-08-30T03:01:49.079Z,17.45
2018-08-30T03:04:17.492Z,17.44
2018-08-30T03:06:45.890Z,17.43
2018-08-30T03:09:14.459Z,17.47
2018-08-30T03:11:42.908Z,17.31
2018-08-30T03:14:11.226Z,17.37
2018-08-30T03:16:39.518Z,17.38
2018-08-30T03:19:07.868Z,17.41
2018-08-30T03:21:36.166Z,17.33
2018-08-30T03:24:04.446Z,17.48
2018-08-30T03:26:32.752Z,17.40
2018-08-30T03:29:01.035Z,17.44
2018-08-30T03:31:29.375Z,17.41
2018-08-30T03:33:57.663Z,17.38
2018-08-30T03:36:25.985Z,17.50
2018-08-30T03:38:54.280Z,17.45
2018-08-30T03:41:22.569Z,17.29
2018-08-30T03:43:50.909Z,17.09
2018-08-30T03:46:19.219Z,16.78
2018-08-30T03:48:47.518Z,16.75
2018-08-30T03:51:15.903Z,16.73
2018-08-30T03:53:44.268Z,16.67
2018-08-30T03:56:12.599Z,16.44
2018-08-30T03:58:40.905Z,16.62
2018-08-30T04:01:09.183Z,16.57
2018-08-30T04:03:37.476Z,16.20
2018-08-30T04:06:05.781Z,16.14
2018-08-30T04:08:34.079Z,16.36
2018-08-30T04:11:02.354Z,16.23
2018-08-30T04:13:30.718Z,16.11
2018-08-30T04:15:58.946Z,16.00
2018-08-30T04:18:27.318Z,15.96
2018-08-30T04:20:55.696Z,15.84
2018-08-30T04:23:24.066Z,15.84
2018-08-30T04:25:52.425Z,15.94
2018-08-30T04:28:20.713Z,15.91
2018-08-30T04:30:49.005Z,15.87
2018-08-30T04:33:17.297Z,15.84
2018-08-30T04:35:45.721Z,15.83
2018-08-30T04:38:14.094Z,15.88
2018-08-30T04:40:42.427Z,15.74
2018-08-30T04:43:10.705Z,15.77
2018-08-30T04:45:39.038Z,15.75
2018-08-30T04:48:07.340Z,15.75
2018-08-30T04:50:35.692Z,15.54
2018-08-30T04:53:03.986Z,15.58
2018-08-30T04:55:32.298Z,15.68
2018-08-30T04:58:00.595Z,15.48
2018-08-30T05:00:28.909Z,15.55
2018-08-30T05:02:57.201Z,15.48
2018-08-30T05:05:26.222Z,15.48
2018-08-30T05:07:54.523Z,15.44
2018-08-30T05:10:22.965Z,15.26
2018-08-30T05:12:51.399Z,15.23
2018-08-30T05:15:19.763Z,15.16
2018-08-30T05:17:48.157Z,15.22
2018-08-30T05:20:16.574Z,15.26
2018-08-30T05:22:44.894Z,15.22
2018-08-30T05:25:14.706Z,15.20
2018-08-30T05:27:43.225Z,15.07
2018-08-30T05:30:18.218Z,15.13
2018-08-30T05:33:01.270Z,15.14
2018-08-30T05:35:43.568Z,15.13
2018-08-30T05:38:12.956Z,15.28
2018-08-30T05:40:41.748Z,15.33
2018-08-30T05:43:10.177Z,15.22
2018-08-30T05:45:38.478Z,15.15
2018-08-30T05:48:06.774Z,15.15
2018-08-30T05:50:35.074Z,15.12
2018-08-30T05:53:04.132Z,15.24
2018-08-30T05:55:32.860Z,15.12
2018-08-30T05:58:01.167Z,15.11
2018-08-30T06:00:29.528Z,15.12
2018-08-30T06:02:57.823Z,15.15
2018-08-30T06:05:26.171Z,15.16
2018-08-30T06:07:54.490Z,15.09
2018-08-30T06:10:22.778Z,15.15
2018-08-30T06:12:51.082Z,15.02
2018-08-30T06:15:19.378Z,15.07
2018-08-30T06:17:47.718Z,15.09
2018-08-30T06:20:16.271Z,15.12
2018-08-30T06:22:44.635Z,15.08
2018-08-30T06:25:12.905Z,15.09
2018-08-30T06:27:41.210Z,15.19
2018-08-30T06:30:09.722Z,15.10
2018-08-30T06:32:38.136Z,15.05
2018-08-30T06:35:06.501Z,14.99
2018-08-30T06:37:34.827Z,15.08
2018-08-30T06:40:03.227Z,14.93
2018-08-30T06:42:31.499Z,14.95
2018-08-30T06:44:59.860Z,14.97
2018-08-30T06:47:28.117Z,14.91
2018-08-30T06:49:56.475Z,14.87
2018-08-30T06:52:24.870Z,14.96
2018-08-30T06:54:53.214Z,14.97
2018-08-30T06:57:21.528Z,14.93
2018-08-30T06:59:49.852Z,14.89
2018-08-30T07:02:18.144Z,14.98
2018-08-30T07:04:46.688Z,15.00
2018-08-30T07:07:15.004Z,15.00
2018-08-30T07:09:43.384Z,15.08
2018-08-30T07:12:11.923Z,15.18
2018-08-30T07:14:40.297Z,15.10
2018-08-30T07:17:08.694Z,14.89
2018-08-30T07:19:36.963Z,15.09
2018-08-30T07:22:05.327Z,14.97
2018-08-30T07:24:33.649Z,14.95
2018-08-30T07:27:01.974Z,15.09
2018-08-30T07:29:30.250Z,14.97
2018-08-30T07:31:58.583Z,14.95
2018-08-30T07:34:26.973Z,15.02
2018-08-30T07:36:55.195Z,15.03
2018-08-30T07:39:23.478Z,14.93
2018-08-30T07:41:51.808Z,14.88
2018-08-30T07:44:20.289Z,14.98
2018-08-30T07:46:50.999Z,14.95
2018-08-30T07:49:19.713Z,15.00
2018-08-30T07:51:48.081Z,14.89
2018-08-30T07:54:16.498Z,14.92
2018-08-30T07:56:44.855Z,14.89
2018-08-30T07:59:13.316Z,14.96
2018-08-30T08:01:41.747Z,15.04
2018-08-30T08:04:10.053Z,15.13
2018-08-30T08:06:38.367Z,15.20
2018-08-30T08:09:08.270Z,15.27
2018-08-30T08:11:36.574Z,15.27
2018-08-30T08:14:04.957Z,15.05
2018-08-30T08:16:33.302Z,15.13
2018-08-30T08:19:01.666Z,15.15
2018-08-30T08:21:29.914Z,15.31
2018-08-30T08:23:58.265Z,15.45
2018-08-30T08:26:26.562Z,15.23
2018-08-30T08:28:54.881Z,15.40
2018-08-30T08:31:23.241Z,15.42
2018-08-30T08:33:51.746Z,15.13
2018-08-30T08:36:20.088Z,15.22
2018-08-30T08:38:48.658Z,14.97
2018-08-30T08:41:16.946Z,15.12
2018-08-30T08:43:45.250Z,15.24
2018-08-30T08:46:13.537Z,15.36
2018-08-30T08:48:41.867Z,15.26
2018-08-30T08:51:10.191Z,15.30
2018-08-30T08:53:38.523Z,15.11
2018-08-30T08:56:06.869Z,15.46
2018-08-30T08:58:35.151Z,15.19
2018-08-30T09:01:03.495Z,15.11
2018-08-30T09:03:31.842Z,15.10
2018-08-30T09:06:00.157Z,15.02
2018-08-30T09:08:28.486Z,15.09
2018-08-30T09:10:57.080Z,15.15
2018-08-30T09:13:25.430Z,15.18
2018-08-30T09:15:53.717Z,15.20
2018-08-30T09:18:22.171Z,15.20
2018-08-30T09:20:50.723Z,15.17
2018-08-30T09:23:19.063Z,14.97
2018-08-30T09:25:47.317Z,15.28
2018-08-30T09:28:15.604Z,15.40
2018-08-30T09:30:44.053Z,15.68
2018-08-30T09:33:12.477Z,15.39
2018-08-30T09:35:40.857Z,15.77
2018-08-30T09:38:09.219Z,15.74
2018-08-30T09:40:37.718Z,15.85
2018-08-30T09:43:07.092Z,15.83
2018-08-30T09:45:36.006Z,15.71
2018-08-30T09:48:05.774Z,16.00
2018-08-30T09:50:35.501Z,16.02
2018-08-30T09:53:04.456Z,16.18
2018-08-30T09:55:33.002Z,16.21
2018-08-30T09:58:01.264Z,16.08
2018-08-30T10:00:34.914Z,16.27
2018-08-30T10:03:03.205Z,16.51
2018-08-30T10:05:31.507Z,16.22
2018-08-30T10:07:59.953Z,16.55
2018-08-30T10:10:28.244Z,16.43
2018-08-30T10:12:56.912Z,16.58
2018-08-30T10:15:25.482Z,16.30
2018-08-30T10:17:53.877Z,16.27
2018-08-30T10:20:22.197Z,16.78
2018-08-30T10:22:50.462Z,16.57
2018-08-30T10:25:18.839Z,16.76
2018-08-30T10:27:47.169Z,16.66
2018-08-30T10:30:15.437Z,16.81
2018-08-30T10:32:44.210Z,16.60
2018-08-30T10:35:12.613Z,16.45
2018-08-30T10:37:40.969Z,16.63
2018-08-30T10:40:09.444Z,16.78
2018-08-30T10:42:37.733Z,16.80
2018-08-30T10:45:06.104Z,16.85
2018-08-30T10:47:41.089Z,16.78
2018-08-30T10:50:09.457Z,16.39
2018-08-30T10:52:38.020Z,16.16
2018-08-30T10:55:06.437Z,16.28
2018-08-30T10:57:34.725Z,16.30
2018-08-30T11:00:02.976Z,16.20
2018-08-30T11:02:31.264Z,16.33
2018-08-30T11:04:59.709Z,16.58
2018-08-30T11:07:28.303Z,16.70
2018-08-30T11:10:03.007Z,16.43
2018-08-30T11:12:31.514Z,16.62
2018-08-30T11:15:00.083Z,16.81
2018-08-30T11:17:29.071Z,17.12
2018-08-30T11:19:57.384Z,16.83
2018-08-30T11:22:25.771Z,17.21
2018-08-30T11:24:54.249Z,17.09
2018-08-30T11:27:22.670Z,17.10
2018-08-30T11:29:51.610Z,17.17
2018-08-30T11:32:19.911Z,17.33
2018-08-30T11:34:48.603Z,17.20
2018-08-30T11:37:16.909Z,17.45
2018-08-30T11:39:45.228Z,17.50
2018-08-30T11:42:13.507Z,17.09
2018-08-30T11:44:41.871Z,17.19
2018-08-30T11:47:10.198Z,17.21
2018-08-30T11:49:38.548Z,17.22
2018-08-30T11:52:09.979Z,17.24
2018-08-30T11:54:39.245Z,17.29
2018-08-30T11:57:08.341Z,16.80
2018-08-30T11:59:36.594Z,16.95
2018-08-30T12:02:04.954Z,17.12
2018-08-30T12:04:33.351Z,17.16
2018-08-30T12:07:01.909Z,17.23
2018-08-30T12:09:30.321Z,17.21
2018-08-30T12:12:01.903Z,17.33
2018-08-30T12:14:30.233Z,17.32
2018-08-30T12:16:58.587Z,16.96
2018-08-30T12:19:26.976Z,16.99
2018-08-30T12:21:55.353Z,17.04
2018-08-30T12:24:23.658Z,17.22
2018-08-30T12:26:53.482Z,17.39
2018-08-30T12:29:21.932Z,17.52
2018-08-30T12:31:50.286Z,17.77
2018-08-30T12:34:18.718Z,17.80
2018-08-30T12:36:47.229Z,17.65
2018-08-30T12:39:15.595Z,17.81
2018-08-30T12:41:43.942Z,17.97
2018-08-30T12:44:12.196Z,17.97
2018-08-30T12:46:40.476Z,18.33
2018-08-30T12:49:08.784Z,18.21
2018-08-30T12:51:37.311Z,18.53
2018-08-30T12:54:05.445Z,18.25
2018-08-30T12:56:33.737Z,18.57
2018-08-30T12:59:07.348Z,18.82
2018-08-30T13:01:35.906Z,18.68
2018-08-30T13:04:04.449Z,18.80
2018-08-30T13:07:35.495Z,19.18
2018-08-30T13:10:04.076Z,19.07
2018-08-30T13:12:32.509Z,19.17
2018-08-30T13:15:00.935Z,19.03
2018-08-30T13:17:29.205Z,19.36
2018-08-30T13:19:57.469Z,19.24
2018-08-30T13:22:26.117Z,19.38
2018-08-30T13:24:54.467Z,19.11
2018-08-30T13:27:22.973Z,19.09
2018-08-30T13:29:51.394Z,18.84
2018-08-30T13:32:19.879Z,19.14
2018-08-30T13:34:54.873Z,19.31
2018-08-30T13:37:23.340Z,19.31
2018-08-30T13:39:51.567Z,19.18
2018-08-30T13:42:20.086Z,19.04
2018-08-30T13:44:48.404Z,18.88
2018-08-30T13:50:07.257Z,19.12
2018-08-30T13:52:35.693Z,19.25
2018-08-30T13:55:04.127Z,19.24
2018-08-30T13:57:33.502Z,19.28
2018-08-30T14:00:02.033Z,19.24
2018-08-30T14:02:30.024Z,19.21
2018-08-30T14:04:58.663Z,19.37
2018-08-30T14:07:27.073Z,19.36
2018-08-30T14:09:55.524Z,19.13
2018-08-30T14:12:24.032Z,19.41
2018-08-30T14:14:52.357Z,19.72
2018-08-30T14:17:21.468Z,19.34
2018-08-30T14:19:50.191Z,19.43
2018-08-30T14:22:18.565Z,19.23
2018-08-30T14:24:46.896Z,19.26
2018-08-30T14:27:15.322Z,19.29
2018-08-30T14:29:43.557Z,19.26
2018-08-30T14:32:11.809Z,19.45
2018-08-30T14:34:40.070Z,19.60
2018-08-30T14:37:08.839Z,19.43
2018-08-30T14:39:37.129Z,19.35
2018-08-30T14:42:05.765Z,19.48
2018-08-30T14:44:34.891Z,19.34
2018-08-30T14:47:03.253Z,19.42
2018-08-30T14:49:31.589Z,19.36
2018-08-30T14:51:59.884Z,19.44
2018-08-30T14:54:28.261Z,19.57
2018-08-30T14:56:57.145Z,19.53
2018-08-30T14:59:25.902Z,19.38
2018-08-30T15:01:54.214Z,19.34
2018-08-30T15:04:22.503Z,19.15
2018-08-30T15:06:50.848Z,19.24
2018-08-30T15:09:19.171Z,19.16
2018-08-30T15:11:47.437Z,18.98
2018-08-30T15:14:16.138Z,18.91
2018-08-30T15:16:44.429Z,18.87
2018-08-30T15:19:13.034Z,18.88
2018-08-30T15:21:41.549Z,18.80
2018-08-30T15:24:09.956Z,18.88
2018-08-30T15:26:38.962Z,18.82
2018-08-30T15:29:07.651Z,18.80
2018-08-30T15:31:36.165Z,18.89
2018-08-30T15:34:04.622Z,18.88
2018-08-30T15:36:34.566Z,19.01
2018-08-30T15:39:03.183Z,18.72
2018-08-30T15:41:32.144Z,18.72
2018-08-30T15:44:00.429Z,18.71
2018-08-30T15:46:28.876Z,18.78
2018-08-30T15:48:57.282Z,18.72
2018-08-30T15:51:25.550Z,18.74
2018-08-30T15:53:54.209Z,18.64
2018-08-30T15:56:22.462Z,18.60
2018-08-30T15:58:51.027Z,18.53
2018-08-30T16:01:19.410Z,18.50
2018-08-30T16:03:47.789Z,18.38
2018-08-30T16:06:16.236Z,18.43
2018-08-30T16:08:44.758Z,18.39
2018-08-30T16:11:13.323Z,18.39
2018-08-30T16:13:41.891Z,18.39
2018-08-30T16:16:11.022Z,18.45
2018-08-30T16:18:39.524Z,18.52
2018-08-30T16:21:07.904Z,18.48
2018-08-30T16:23:37.263Z,18.60
2018-08-30T16:26:05.835Z,18.65
2018-08-30T16:28:34.983Z,18.70
2018-08-30T16:31:03.382Z,18.63
2018-08-30T16:33:31.686Z,18.57
2018-08-30T16:36:00.009Z,18.56
2018-08-30T16:38:28.335Z,18.39
2018-08-30T16:40:56.635Z,18.29
2018-08-30T16:43:25.009Z,18.20
2018-08-30T16:45:53.323Z,18.23
2018-08-30T16:48:21.714Z,18.26
2018-08-30T16:50:50.047Z,18.17
2018-08-30T16:53:18.499Z,18.21
2018-08-30T16:55:46.786Z,18.05
2018-08-30T16:58:15.109Z,18.01
2018-08-30T17:00:43.430Z,18.14
2018-08-30T17:03:11.763Z,18.00
2018-08-30T17:05:40.057Z,17.97
2018-08-30T17:08:08.371Z,17.99
2018-08-30T17:10:36.744Z,17.90
2018-08-30T17:13:05.082Z,17.87
2018-08-30T17:15:33.408Z,17.70
2018-08-30T17:18:01.764Z,17.68
2018-08-30T17:20:37.111Z,17.62
2018-08-30T17:23:05.817Z,17.50
2018-08-30T17:25:34.204Z,17.47
2018-08-30T17:28:02.582Z,17.51
2018-08-30T17:30:30.884Z,17.44
2018-08-30T17:32:59.388Z,17.34
2018-08-30T17:35:28.014Z,17.32
2018-08-30T17:37:56.565Z,17.33
2018-08-30T17:40:25.175Z,17.33
2018-08-30T17:42:53.535Z,17.26
2018-08-30T17:45:22.489Z,17.13
2018-08-30T17:47:50.713Z,16.84
2018-08-30T17:50:19.436Z,16.91
2018-08-30T17:52:47.747Z,16.72
2018-08-30T17:55:16.128Z,16.47
2018-08-30T17:57:48.469Z,16.37
2018-08-30T18:00:16.909Z,16.34
2018-08-30T18:02:46.194Z,16.41
2018-08-30T18:05:15.114Z,16.24
2018-08-30T18:07:43.764Z,16.10
2018-08-30T18:10:12.123Z,16.17
2018-08-30T18:12:40.737Z,15.85
2018-08-30T18:15:10.926Z,15.87
2018-08-30T18:17:39.255Z,15.83
2018-08-30T18:20:10.160Z,15.80
2018-08-30T18:22:38.594Z,15.81
2018-08-30T18:25:07.418Z,15.83
2018-08-30T18:27:35.862Z,15.75
2018-08-30T18:30:04.320Z,15.66
2018-08-30T18:32:32.695Z,15.59
2018-08-30T18:35:01.035Z,15.67
2018-08-30T18:37:29.378Z,15.55
2018-08-30T18:39:57.778Z,15.57
2018-08-30T18:42:26.120Z,15.50
2018-08-30T18:44:54.534Z,15.44
2018-08-30T18:47:22.889Z,15.50
2018-08-30T18:49:51.276Z,15.50
2018-08-30T18:52:19.588Z,15.47
2018-08-30T18:54:47.942Z,15.51
2018-08-30T18:57:16.334Z,15.53
2018-08-30T18:59:44.674Z,15.66
2018-08-30T19:02:13.067Z,15.60
2018-08-30T19:04:41.764Z,15.55
2018-08-30T19:07:10.473Z,15.58
2018-08-30T19:09:38.786Z,15.57
2018-08-30T19:12:07.565Z,15.64
2018-08-30T19:14:37.082Z,15.51
2018-08-30T19:17:11.167Z,15.51
2018-08-30T19:19:39.441Z,15.62
2018-08-30T19:22:07.881Z,15.67
2018-08-30T19:24:41.730Z,15.49
2018-08-30T19:27:10.062Z,15.50
2018-08-30T19:29:43.892Z,15.45
2018-08-30T19:32:12.564Z,15.54
2018-08-30T19:34:40.939Z,15.35
2018-08-30T19:37:09.322Z,14.92
2018-08-30T19:39:37.652Z,14.72
2018-08-30T19:42:06.914Z,14.90
2018-08-30T19:44:35.395Z,14.40
2018-08-30T19:47:04.004Z,14.54
2018-08-30T19:49:32.350Z,14.49
2018-08-30T19:52:00.895Z,14.47
2018-08-30T19:54:29.204Z,14.50
2018-08-30T19:56:57.902Z,14.32
2018-08-30T19:59:26.587Z,14.14
2018-08-30T20:01:55.255Z,14.21
2018-08-30T20:04:23.836Z,14.19
2018-08-30T20:06:53.135Z,14.09
2018-08-30T20:09:21.787Z,14.03
2018-08-30T20:11:50.664Z,13.95
2018-08-30T20:14:19.367Z,14.01
2018-08-30T20:16:48.120Z,14.07
2018-08-30T20:19:16.454Z,13.97
2018-08-30T20:21:45.939Z,13.85
2018-08-30T20:24:14.629Z,13.80
2018-08-30T20:26:42.947Z,13.91
2018-08-30T20:29:11.372Z,13.99
2018-08-30T20:31:40.029Z,13.93
2018-08-30T20:34:08.766Z,13.96
2018-08-30T20:36:37.179Z,14.04
2018-08-30T20:39:06.269Z,14.12
2018-08-30T20:41:34.662Z,14.01
2018-08-30T20:44:03.123Z,14.21
2018-08-30T20:46:31.516Z,14.06
2018-08-30T20:48:59.874Z,14.18
2018-08-30T20:51:28.187Z,14.09
2018-08-30T20:53:56.499Z,14.18
2018-08-30T20:56:24.922Z,14.03
2018-08-30T20:58:53.418Z,14.07
2018-08-30T21:01:21.711Z,13.93
2018-08-30T21:03:50.079Z,13.90
2018-08-30T21:06:18.387Z,13.89
2018-08-30T21:08:46.724Z,14.03
2018-08-30T21:11:15.118Z,13.66
2018-08-30T21:13:43.544Z,13.49
2018-08-30T21:16:11.962Z,13.76
2018-08-30T21:18:40.274Z,13.59
2018-08-30T21:21:08.739Z,13.65
2018-08-30T21:23:37.178Z,13.57
2018-08-30T21:26:05.942Z,13.74
2018-08-30T21:28:34.277Z,13.58
2018-08-30T21:31:02.585Z,13.33
2018-08-30T21:33:30.859Z,13.46
2018-08-30T21:35:59.234Z,13.66
2018-08-30T21:38:27.669Z,13.70
2018-08-30T21:40:55.994Z,13.61
2018-08-30T21:43:24.475Z,13.44
2018-08-30T21:45:52.958Z,13.56
2018-08-30T21:48:21.276Z,13.37
2018-08-30T21:50:49.642Z,13.32
2018-08-30T21:53:17.961Z,13.29
2018-08-30T21:55:46.293Z,13.54
2018-08-30T21:58:14.625Z,13.27
2018-08-30T22:00:42.981Z,13.40
2018-08-30T22:03:11.269Z,13.33
2018-08-30T22:05:39.569Z,13.38
2018-08-30T22:08:07.850Z,13.38
2018-08-30T22:10:36.225Z,13.40
2018-08-30T22:13:04.585Z,13.39
2018-08-30T22:15:32.905Z,13.17
2018-08-30T22:18:01.253Z,13.30
2018-08-30T22:20:29.563Z,13.39
2018-08-30T22:22:57.890Z,13.38
2018-08-30T22:25:26.214Z,13.37
2018-08-30T22:27:54.593Z,13.34
2018-08-30T22:30:22.902Z,13.23
2018-08-30T22:32:51.283Z,13.25
2018-08-30T22:35:19.605Z,13.08
2018-08-30T22:37:47.876Z,13.08
2018-08-30T22:40:16.237Z,13.25
2018-08-30T22:42:44.578Z,13.34
2018-08-30T22:45:12.929Z,13.30
2018-08-30T22:47:41.245Z,13.08
2018-08-30T22:50:09.839Z,13.20
2018-08-30T22:52:38.265Z,13.22
2018-08-30T22:55:06.596Z,12.94
2018-08-30T22:57:34.925Z,13.10
2018-08-30T23:00:03.328Z,13.01
2018-08-30T23:02:31.696Z,12.98
2018-08-30T23:05:00.057Z,12.93
2018-08-30T23:07:28.439Z,12.99
2018-08-30T23:09:56.849Z,13.04
2018-08-30T23:12:25.102Z,12.86
2018-08-30T23:14:53.498Z,12.92
2018-08-30T23:17:21.769Z,12.88
2018-08-30T23:19:50.150Z,12.74
2018-08-30T23:22:18.545Z,12.67
2018-08-30T23:24:46.830Z,12.77
2018-08-30T23:27:15.285Z,12.69
2018-08-30T23:29:43.576Z,12.65
2018-08-30T23:32:11.892Z,12.82
2018-08-30T23:34:40.188Z,12.88
2018-08-30T23:37:08.617Z,12.70
2018-08-30T23:39:37.035Z,12.58
2018-08-30T23:42:05.555Z,12.62
2018-08-30T23:44:33.974Z,12.60
2018-08-30T23:47:02.263Z,12.69
2018-08-30T23:49:30.557Z,12.69
2018-08-30T23:51:58.860Z,12.68
2018-08-30T23:54:27.312Z,12.65
2018-08-30T23:56:55.711Z,12.62
2018-08-30T23:59:35.389Z,12.63
